Time;durP1;ratioP1;P1;durP2;ratioP2;P2;SDS_P1;SDS_P2;PMS_P1;PMS_P2;Temp;Humidity;BMP_temperature;BMP_pressure;BME280_temperature;BME280_humidity;BME280_pressure;Samples;Min_cycle;Max_cycle;Signal;HPM_P1;HPM_P2
2023/10/31 00:00:53;;;;;;;6.55;1.90;;;9.80;99.90;;;;;;5134531;27;20076;-86
2023/10/31 00:03:42;;;;;;;1.50;1.40;;;9.80;99.90;;;;;;5113235;27;20047;-82
2023/10/31 00:06:32;;;;;;;2.58;1.13;;;9.80;99.90;;;;;;5117407;27;20473;-87
2023/10/31 00:09:19;;;;;;;0.88;0.70;;;9.90;99.90;;;;;;5116545;27;20409;-81
2023/10/31 00:12:09;;;;;;;0.73;0.70;;;9.90;99.90;;;;;;5132029;27;20036;-85
2023/10/31 00:14:56;;;;;;;0.60;0.60;;;9.90;99.90;;;;;;5120507;27;20130;-87
2023/10/31 00:17:43;;;;;;;0.93;0.80;;;9.90;99.90;;;;;;5131779;27;20054;-85
2023/10/31 00:20:33;;;;;;;0.60;0.60;;;9.90;99.90;;;;;;5131559;27;20130;-85
2023/10/31 00:23:22;;;;;;;0.60;0.60;;;9.90;99.90;;;;;;5131964;27;20043;-85
2023/10/31 00:26:09;;;;;;;0.95;0.57;;;9.90;99.90;;;;;;5106484;27;20039;-87
2023/10/31 00:28:59;;;;;;;0.57;0.57;;;9.80;99.90;;;;;;5132270;27;20316;-86
2023/10/31 00:31:46;;;;;;;7.03;0.70;;;9.70;99.90;;;;;;5113453;27;20069;-83
2023/10/31 00:34:36;;;;;;;0.50;0.50;;;9.70;99.90;;;;;;5112438;27;20049;-87
2023/10/31 00:37:23;;;;;;;0.52;0.50;;;9.70;99.90;;;;;;5124820;27;20031;-85
2023/10/31 00:40:11;;;;;;;0.98;0.65;;;9.70;99.90;;;;;;5128089;27;20048;-80
2023/10/31 00:42:58;;;;;;;2.25;0.52;;;9.70;99.90;;;;;;5128537;27;20555;-86
2023/10/31 00:45:46;;;;;;;0.85;0.60;;;9.60;99.90;;;;;;5118295;27;20057;-86
2023/10/31 00:48:36;;;;;;;2.05;0.60;;;9.60;99.90;;;;;;5131631;27;20035;-85
2023/10/31 00:51:23;;;;;;;0.70;0.70;;;9.60;99.90;;;;;;5118088;27;20054;-79
2023/10/31 00:54:15;;;;;;;0.93;0.70;;;9.50;99.90;;;;;;5112312;27;20050;-86
2023/10/31 00:57:03;;;;;;;1.80;0.70;;;9.50;99.90;;;;;;5123838;27;20335;-84
2023/10/31 00:59:50;;;;;;;1.02;0.70;;;9.50;99.90;;;;;;5113051;27;20073;-79
2023/10/31 01:02:37;;;;;;;0.60;0.60;;;9.30;99.90;;;;;;5117894;27;20039;-87
2023/10/31 01:05:26;;;;;;;0.93;0.80;;;9.30;99.90;;;;;;5107779;27;20047;-84
2023/10/31 01:08:14;;;;;;;1.10;1.00;;;9.20;99.90;;;;;;5130669;27;20043;-86
2023/10/31 01:11:02;;;;;;;3.55;0.80;;;9.20;99.90;;;;;;5129800;27;20447;-86
2023/10/31 01:13:56;;;;;;;2.15;0.75;;;9.10;99.90;;;;;;5132664;27;20126;-83
2023/10/31 01:16:43;;;;;;;1.75;1.00;;;9.00;99.90;;;;;;5120974;27;20058;-86
2023/10/31 01:19:31;;;;;;;0.70;0.70;;;8.90;99.90;;;;;;5125578;27;20067;-85
2023/10/31 01:22:18;;;;;;;1.75;1.13;;;8.80;99.90;;;;;;5113645;27;20408;-87
2023/10/31 01:25:06;;;;;;;0.95;0.80;;;8.70;99.90;;;;;;5122274;27;20175;-87
2023/10/31 01:27:55;;;;;;;1.33;0.80;;;8.70;99.90;;;;;;5119465;27;20050;-80
2023/10/31 01:30:44;;;;;;;1.52;0.95;;;8.70;99.90;;;;;;5113245;27;20051;-84
2023/10/31 01:33:31;;;;;;;1.75;1.13;;;8.60;99.90;;;;;;5130876;27;20461;-85
2023/10/31 01:36:19;;;;;;;3.97;1.00;;;8.60;99.90;;;;;;5122914;27;20051;-85
2023/10/31 01:39:07;;;;;;;1.85;1.08;;;8.60;99.90;;;;;;5133073;27;20040;-83
2023/10/31 01:41:54;;;;;;;0.90;0.90;;;8.60;99.90;;;;;;5132559;27;20051;-86
2023/10/31 01:44:42;;;;;;;6.97;0.90;;;8.70;99.90;;;;;;5134079;27;20035;-83
2023/10/31 01:47:31;;;;;;;3.08;0.82;;;8.70;99.90;;;;;;5107635;28;20054;-86
2023/10/31 01:50:19;;;;;;;1.05;0.80;;;8.70;99.90;;;;;;5134423;28;20050;-78
2023/10/31 01:53:07;;;;;;;1.13;0.90;;;8.70;99.90;;;;;;5137577;28;20047;-87
2023/10/31 01:55:55;;;;;;;0.80;0.80;;;8.80;99.90;;;;;;5138047;28;20043;-86
2023/10/31 01:58:43;;;;;;;4.32;1.20;;;8.70;99.90;;;;;;5128187;28;20108;-88
2023/10/31 02:01:32;;;;;;;3.78;1.05;;;8.80;99.90;;;;;;5142637;28;20089;-85
2023/10/31 02:04:19;;;;;;;4.32;1.38;;;8.80;99.90;;;;;;5129341;28;20141;-78
2023/10/31 02:07:07;;;;;;;3.45;0.95;;;8.80;99.90;;;;;;5131015;28;20047;-87
2023/10/31 02:09:54;;;;;;;1.70;0.93;;;8.80;99.90;;;;;;5126707;28;20036;-86
2023/10/31 02:12:44;;;;;;;1.85;1.23;;;8.90;99.90;;;;;;5106144;27;20490;-85
2023/10/31 02:15:31;;;;;;;2.72;1.15;;;8.80;99.90;;;;;;5121364;27;20043;-82
2023/10/31 02:18:19;;;;;;;1.35;1.20;;;8.90;99.90;;;;;;5133468;27;20043;-81
2023/10/31 02:21:06;;;;;;;1.10;1.00;;;8.90;99.90;;;;;;5138173;27;20039;-87
2023/10/31 02:24:01;;;;;;;3.63;0.85;;;8.90;99.90;;;;;;5119537;27;20111;-85
2023/10/31 02:26:48;;;;;;;2.03;1.13;;;8.90;99.90;;;;;;5137187;27;20443;-86
2023/10/31 02:29:35;;;;;;;2.60;1.00;;;8.90;99.90;;;;;;5130079;27;20045;-87
2023/10/31 02:32:25;;;;;;;1.70;0.88;;;8.90;99.90;;;;;;5135312;27;20062;-88
2023/10/31 02:35:13;;;;;;;4.63;1.15;;;8.90;99.90;;;;;;5126978;27;20459;-87
2023/10/31 02:38:01;;;;;;;1.73;0.68;;;9.00;99.90;;;;;;5117279;27;20120;-88
2023/10/31 02:40:50;;;;;;;1.30;0.70;;;8.90;99.90;;;;;;5119289;27;20039;-82
2023/10/31 02:43:39;;;;;;;3.10;0.90;;;8.90;99.90;;;;;;5131007;27;20112;-88
2023/10/31 02:46:26;;;;;;;0.98;0.70;;;8.90;99.90;;;;;;5131183;27;20043;-87
2023/10/31 02:49:16;;;;;;;3.22;1.20;;;9.00;99.90;;;;;;5133748;27;20077;-86
2023/10/31 02:52:04;;;;;;;4.07;1.00;;;9.00;99.90;;;;;;5133742;27;20093;-87
2023/10/31 02:54:51;;;;;;;3.40;0.70;;;9.10;99.90;;;;;;5135463;27;21625;-81
2023/10/31 02:57:38;;;;;;;0.88;0.80;;;9.00;99.90;;;;;;5129161;27;20043;-83
2023/10/31 03:00:27;;;;;;;3.97;0.90;;;9.00;99.90;;;;;;5112288;27;20052;-87
2023/10/31 03:03:15;;;;;;;1.00;0.90;;;9.00;99.90;;;;;;5111283;27;20445;-88
2023/10/31 03:06:04;;;;;;;1.75;0.80;;;9.00;99.90;;;;;;5109112;27;20065;-86
2023/10/31 03:08:51;;;;;;;2.40;1.10;;;8.90;99.90;;;;;;5110995;27;20445;-87
2023/10/31 03:11:38;;;;;;;1.95;0.88;;;8.90;99.90;;;;;;5132964;27;20121;-87
2023/10/31 03:14:28;;;;;;;2.83;1.30;;;8.90;99.90;;;;;;5135325;27;20044;-87
2023/10/31 03:17:15;;;;;;;3.28;0.85;;;8.80;99.90;;;;;;5115706;27;20050;-86
2023/10/31 03:20:03;;;;;;;2.28;0.93;;;8.80;99.90;;;;;;5132061;27;20070;-88
2023/10/31 03:22:51;;;;;;;3.42;0.90;;;8.70;99.90;;;;;;5118149;27;20058;-86
2023/10/31 03:25:38;;;;;;;1.48;0.98;;;8.70;99.90;;;;;;5129656;27;20049;-88
2023/10/31 03:28:27;;;;;;;4.60;1.05;;;8.60;99.90;;;;;;5125936;27;20047;-88
2023/10/31 03:31:19;;;;;;;3.05;1.05;;;8.50;99.90;;;;;;5132728;27;20050;-88
2023/10/31 03:34:07;;;;;;;2.70;1.50;;;8.50;99.90;;;;;;5136427;27;20043;-82
2023/10/31 03:36:54;;;;;;;3.83;1.08;;;8.50;99.90;;;;;;5130543;27;20536;-87
2023/10/31 03:39:41;;;;;;;2.58;1.65;;;8.40;99.90;;;;;;5117441;27;20050;-88
2023/10/31 03:42:28;;;;;;;2.08;1.10;;;8.30;99.90;;;;;;5128964;27;20069;-82
2023/10/31 03:45:16;;;;;;;7.38;1.30;;;8.30;99.90;;;;;;5137035;27;20042;-80
2023/10/31 03:48:06;;;;;;;1.35;1.00;;;8.30;99.90;;;;;;5132342;27;20047;-87
2023/10/31 03:50:53;;;;;;;1.20;1.10;;;8.30;99.90;;;;;;5128127;27;20039;-87
2023/10/31 03:53:45;;;;;;;2.58;1.00;;;8.30;99.90;;;;;;5118608;27;20374;-86
2023/10/31 03:56:40;;;;;;;4.65;1.10;;;8.30;99.90;;;;;;5134233;27;20088;-86
2023/10/31 03:59:27;;;;;;;0.85;0.77;;;8.30;99.90;;;;;;5130279;27;20343;-86
2023/10/31 04:02:14;;;;;;;1.60;1.00;;;8.30;99.90;;;;;;5131156;27;20107;-87
2023/10/31 04:05:02;;;;;;;2.03;0.90;;;8.30;99.90;;;;;;5135341;27;20043;-87
2023/10/31 04:07:51;;;;;;;1.23;0.80;;;8.30;99.90;;;;;;5121586;27;20054;-86
2023/10/31 04:10:38;;;;;;;1.65;0.70;;;8.30;99.90;;;;;;5129252;27;20047;-88
2023/10/31 04:13:25;;;;;;;1.80;0.80;;;8.30;99.90;;;;;;5134914;27;20088;-86
2023/10/31 04:16:15;;;;;;;6.68;1.45;;;8.30;99.90;;;;;;5119664;27;20051;-85
2023/10/31 04:19:04;;;;;;;2.58;1.15;;;8.30;99.90;;;;;;5136346;27;20103;-85
2023/10/31 04:21:53;;;;;;;1.70;1.08;;;8.30;99.90;;;;;;5133397;22;20055;-81
2023/10/31 04:24:41;;;;;;;1.27;0.95;;;8.30;99.90;;;;;;5114635;28;20040;-86
2023/10/31 04:27:28;;;;;;;2.67;0.85;;;8.30;99.90;;;;;;5115189;28;20044;-87
2023/10/31 04:30:17;;;;;;;1.33;0.82;;;8.30;99.90;;;;;;5112247;28;20063;-87
2023/10/31 04:33:04;;;;;;;3.03;0.90;;;8.20;99.90;;;;;;5112348;28;20518;-87
2023/10/31 04:35:54;;;;;;;1.83;1.00;;;8.20;99.90;;;;;;5102968;27;20043;-85
2023/10/31 04:38:42;;;;;;;2.60;1.35;;;8.20;99.90;;;;;;5118598;27;20039;-87
2023/10/31 04:41:29;;;;;;;1.15;0.90;;;8.20;99.90;;;;;;5098978;28;20054;-85
2023/10/31 04:44:18;;;;;;;6.63;1.17;;;8.10;99.90;;;;;;5107384;27;20093;-85
2023/10/31 04:47:06;;;;;;;2.08;1.13;;;8.10;99.90;;;;;;5097313;28;20051;-88
2023/10/31 04:49:54;;;;;;;1.67;0.90;;;8.10;99.90;;;;;;5101534;28;20039;-80
2023/10/31 04:52:41;;;;;;;2.95;1.00;;;8.10;99.90;;;;;;5102765;28;20040;-84
2023/10/31 04:55:31;;;;;;;3.03;1.33;;;8.00;99.90;;;;;;5108767;28;20031;-88
2023/10/31 04:58:19;;;;;;;1.52;1.05;;;8.00;99.90;;;;;;5101354;28;20039;-85
2023/10/31 05:01:13;;;;;;;3.67;1.30;;;8.00;99.90;;;;;;5101526;28;20051;-80
2023/10/31 05:04:00;;;;;;;5.30;2.10;;;8.00;99.90;;;;;;5093454;28;20063;-80
2023/10/31 05:06:58;;;;;;;4.38;1.40;;;8.00;99.90;;;;;;5104126;27;20047;-87
2023/10/31 05:09:46;;;;;;;5.85;1.40;;;7.90;99.90;;;;;;5108611;28;20066;-88
2023/10/31 05:12:33;;;;;;;4.32;1.48;;;7.90;99.90;;;;;;5111264;27;20517;-81
2023/10/31 05:15:25;;;;;;;1.85;1.10;;;7.90;99.90;;;;;;5111165;27;20440;-87
2023/10/31 05:18:12;;;;;;;3.10;1.60;;;7.90;99.90;;;;;;5102881;28;20047;-85
2023/10/31 05:21:02;;;;;;;5.05;1.67;;;7.80;99.90;;;;;;5101278;28;20278;-86
2023/10/31 05:23:49;;;;;;;4.13;1.13;;;7.80;99.90;;;;;;5122158;27;20108;-85
2023/10/31 05:26:36;;;;;;;1.63;1.20;;;7.80;99.90;;;;;;5111346;27;20065;-86
2023/10/31 05:29:24;;;;;;;2.22;1.30;;;7.90;99.90;;;;;;5100909;27;20055;-86
2023/10/31 05:32:13;;;;;;;4.43;1.20;;;7.90;99.90;;;;;;5110896;28;20040;-86
2023/10/31 05:35:03;;;;;;;2.35;1.10;;;7.80;99.90;;;;;;5111556;28;20047;-87
2023/10/31 05:37:50;;;;;;;2.90;1.00;;;7.90;99.90;;;;;;5111002;28;20147;-87
2023/10/31 05:40:38;;;;;;;1.73;1.13;;;7.90;99.90;;;;;;5099074;28;20057;-87
2023/10/31 05:43:25;;;;;;;1.70;1.20;;;7.90;99.90;;;;;;5111217;28;20363;-87
2023/10/31 05:46:16;;;;;;;2.75;1.33;;;7.90;99.90;;;;;;5102659;28;20048;-87
2023/10/31 05:49:09;;;;;;;1.35;1.20;;;7.90;99.90;;;;;;5105609;28;20044;-81
2023/10/31 05:51:56;;;;;;;2.50;1.05;;;7.80;99.90;;;;;;5112706;28;20503;-81
2023/10/31 05:54:43;;;;;;;1.50;0.90;;;7.80;99.90;;;;;;5112045;28;20051;-87
2023/10/31 05:57:30;;;;;;;5.07;1.45;;;7.80;99.90;;;;;;5105496;28;20036;-84
2023/10/31 06:00:20;;;;;;;1.00;1.00;;;7.70;99.90;;;;;;5117660;28;20343;-80
2023/10/31 06:03:09;;;;;;;3.90;2.33;;;7.70;99.90;;;;;;5110712;28;20054;-86
2023/10/31 06:05:56;;;;;;;3.33;1.30;;;7.70;99.90;;;;;;5111651;28;20044;-87
2023/10/31 06:08:43;;;;;;;4.10;1.75;;;7.70;99.90;;;;;;5085263;28;20040;-86
2023/10/31 06:11:31;;;;;;;3.05;1.27;;;7.70;99.90;;;;;;5113034;28;20046;-86
2023/10/31 06:14:21;;;;;;;1.83;0.98;;;7.80;99.90;;;;;;5118154;28;20040;-88
2023/10/31 06:17:08;;;;;;;1.25;1.10;;;7.80;99.90;;;;;;5119623;27;20039;-85
2023/10/31 06:19:56;;;;;;;2.92;1.02;;;7.70;99.90;;;;;;5119368;28;20071;-86
2023/10/31 06:22:45;;;;;;;1.75;0.98;;;7.70;99.90;;;;;;5119274;28;20131;-83
2023/10/31 06:25:33;;;;;;;4.63;1.13;;;7.70;99.90;;;;;;5116046;28;20320;-86
2023/10/31 06:28:22;;;;;;;7.07;1.60;;;7.70;99.90;;;;;;5117268;28;20046;-85
2023/10/31 06:31:10;;;;;;;3.45;1.15;;;7.70;99.90;;;;;;5104198;28;20070;-80
2023/10/31 06:33:57;;;;;;;1.42;0.98;;;7.60;99.90;;;;;;5099576;28;20090;-85
2023/10/31 06:36:46;;;;;;;3.65;1.45;;;7.60;99.90;;;;;;5121346;27;20043;-82
2023/10/31 06:39:34;;;;;;;2.38;1.20;;;7.70;99.90;;;;;;5112369;28;20051;-79
2023/10/31 06:42:21;;;;;;;3.33;1.55;;;7.70;99.90;;;;;;5108657;28;20045;-87
2023/10/31 06:45:11;;;;;;;1.80;1.17;;;7.80;99.90;;;;;;5104041;28;20032;-86
2023/10/31 06:47:58;;;;;;;2.63;1.30;;;7.90;99.90;;;;;;5107807;28;20031;-84
2023/10/31 06:50:48;;;;;;;3.47;1.67;;;8.00;99.90;;;;;;5107212;28;20058;-88
2023/10/31 06:53:35;;;;;;;3.33;1.77;;;8.00;99.90;;;;;;5108181;28;20032;-86
2023/10/31 06:56:22;;;;;;;3.22;1.77;;;8.00;99.90;;;;;;5103685;28;20050;-86
2023/10/31 06:59:10;;;;;;;4.60;1.83;;;8.00;99.90;;;;;;5112012;28;20482;-84
2023/10/31 07:01:57;;;;;;;1.95;1.15;;;8.10;99.90;;;;;;5111628;28;20055;-87
2023/10/31 07:04:44;;;;;;;2.05;1.45;;;8.10;99.90;;;;;;5102047;28;20039;-85
2023/10/31 07:07:32;;;;;;;5.43;1.50;;;8.20;99.90;;;;;;5111186;27;20194;-87
2023/10/31 07:10:19;;;;;;;11.75;2.95;;;8.20;99.90;;;;;;5110708;27;20039;-88
2023/10/31 07:13:06;;;;;;;1.40;1.30;;;8.30;99.90;;;;;;5109983;27;20130;-80
2023/10/31 07:15:53;;;;;;;3.42;1.60;;;8.30;99.90;;;;;;5114215;28;20044;-87
2023/10/31 07:18:42;;;;;;;1.95;1.23;;;8.40;99.90;;;;;;5111702;27;20039;-89
2023/10/31 07:21:29;;;;;;;1.45;1.20;;;8.40;99.90;;;;;;5109151;28;20709;-87
2023/10/31 07:24:21;;;;;;;2.08;1.20;;;8.40;99.90;;;;;;5103386;28;20043;-82
2023/10/31 07:27:12;;;;;;;3.88;1.77;;;8.40;99.90;;;;;;5122123;27;20436;-86
2023/10/31 07:30:00;;;;;;;2.10;1.35;;;8.50;99.90;;;;;;5109626;28;20043;-87
2023/10/31 07:32:47;;;;;;;1.52;1.08;;;8.50;99.90;;;;;;5105254;28;20056;-86
2023/10/31 07:35:37;;;;;;;2.83;1.38;;;8.50;99.90;;;;;;5110459;28;20047;-85
2023/10/31 07:38:24;;;;;;;2.60;1.33;;;8.50;99.90;;;;;;5099315;27;20046;-86
2023/10/31 07:41:12;;;;;;;4.28;1.50;;;8.60;99.90;;;;;;5102158;28;20096;-86
2023/10/31 07:43:59;;;;;;;1.75;1.25;;;8.60;99.90;;;;;;5111445;27;20043;-86
2023/10/31 07:46:49;;;;;;;4.18;1.40;;;8.60;99.90;;;;;;5108390;28;20055;-86
2023/10/31 07:49:36;;;;;;;2.45;1.30;;;8.70;99.90;;;;;;5110973;28;20072;-84
2023/10/31 07:52:23;;;;;;;2.80;1.60;;;8.70;99.90;;;;;;5105032;28;20038;-84
2023/10/31 07:55:12;;;;;;;1.13;1.02;;;8.70;99.90;;;;;;5112795;28;20052;-82
2023/10/31 07:58:01;;;;;;;2.90;1.10;;;8.70;99.90;;;;;;5104918;28;20533;-85
2023/10/31 08:00:51;;;;;;;5.38;1.30;;;8.80;99.90;;;;;;5108882;27;20048;-84
2023/10/31 08:03:40;;;;;;;3.30;1.40;;;8.80;99.90;;;;;;5109352;28;20062;-86
2023/10/31 08:06:28;;;;;;;4.05;1.60;;;8.80;99.90;;;;;;5099539;28;20089;-88
2023/10/31 08:09:16;;;;;;;3.25;1.20;;;8.90;99.90;;;;;;5108846;28;20420;-87
2023/10/31 08:12:06;;;;;;;1.77;1.40;;;9.00;99.90;;;;;;5102650;27;20063;-89
2023/10/31 08:14:55;;;;;;;1.92;1.20;;;9.00;99.90;;;;;;5112344;28;20100;-80
2023/10/31 08:17:43;;;;;;;3.35;1.27;;;9.20;99.90;;;;;;5112617;28;20044;-88
2023/10/31 08:20:33;;;;;;;4.00;1.35;;;9.20;99.90;;;;;;5111779;28;20054;-89
2023/10/31 08:23:21;;;;;;;4.78;1.35;;;9.20;99.90;;;;;;5113044;28;20113;-87
2023/10/31 08:26:08;;;;;;;2.08;1.40;;;9.30;99.90;;;;;;5108207;28;20054;-87
2023/10/31 08:28:56;;;;;;;1.95;1.30;;;9.30;99.90;;;;;;5109676;28;20051;-88
2023/10/31 08:31:43;;;;;;;4.40;1.63;;;9.30;99.90;;;;;;5108457;27;20043;-87
2023/10/31 08:34:30;;;;;;;3.67;1.20;;;9.30;99.90;;;;;;5109381;28;20128;-87
2023/10/31 08:37:18;;;;;;;2.40;1.23;;;9.40;99.90;;;;;;5111331;28;20067;-84
2023/10/31 08:40:08;;;;;;;2.85;1.20;;;9.50;59.00;;;;;;5107475;28;20052;-86
2023/10/31 08:42:56;;;;;;;4.70;2.28;;;9.60;40.80;;;;;;5106042;27;20079;-84
2023/10/31 08:45:44;;;;;;;3.47;1.45;;;9.70;1.00;;;;;;5112468;27;20039;-85
2023/10/31 08:48:33;;;;;;;8.23;1.42;;;9.70;1.00;;;;;;5111548;28;20172;-84
2023/10/31 08:51:23;;;;;;;6.90;1.80;;;9.70;1.00;;;;;;5112172;27;20320;-85
2023/10/31 08:54:11;;;;;;;5.75;1.50;;;9.80;1.00;;;;;;5112729;28;20046;-87
2023/10/31 08:57:00;;;;;;;6.55;1.15;;;9.90;99.90;;;;;;5113221;28;20048;-88
2023/10/31 08:59:49;;;;;;;5.75;1.42;;;9.90;99.90;;;;;;5110138;28;20047;-85
2023/10/31 09:02:36;;;;;;;3.53;1.33;;;9.90;99.90;;;;;;5105788;28;20042;-87
2023/10/31 09:05:24;;;;;;;5.10;1.60;;;10.00;99.90;;;;;;5110252;28;20434;-87
2023/10/31 09:08:12;;;;;;;5.35;1.58;;;10.30;26.30;;;;;;5106534;28;20039;-86
2023/10/31 09:11:02;;;;;;;3.35;1.95;;;10.50;1.00;;;;;;5105360;28;20475;-84
2023/10/31 09:13:49;;;;;;;3.10;1.55;;;10.80;89.10;;;;;;5118759;27;20054;-88
2023/10/31 09:16:37;;;;;;;4.82;1.67;;;10.70;99.90;;;;;;5109185;28;20084;-87
2023/10/31 09:19:24;;;;;;;7.50;1.27;;;10.90;51.80;;;;;;5105437;28;20040;-85
2023/10/31 09:22:12;;;;;;;5.20;1.40;;;10.90;99.90;;;;;;5106798;27;20049;-87
2023/10/31 09:24:59;;;;;;;5.50;2.10;;;10.80;99.90;;;;;;5108765;28;20044;-82
2023/10/31 09:27:49;;;;;;;7.88;1.75;;;10.70;99.90;;;;;;5111594;28;20138;-86
2023/10/31 09:30:39;;;;;;;4.53;1.95;;;10.90;1.00;;;;;;5106523;28;20044;-87
2023/10/31 09:33:26;;;;;;;4.22;1.60;;;11.00;1.00;;;;;;5107375;28;20037;-81
2023/10/31 09:36:14;;;;;;;4.10;1.67;;;10.90;99.90;;;;;;5110213;27;20039;-86
2023/10/31 09:39:04;;;;;;;6.45;1.60;;;10.90;99.90;;;;;;5126613;27;20710;-87
2023/10/31 09:41:51;;;;;;;3.53;1.33;;;10.90;34.50;;;;;;5123490;27;20096;-86
2023/10/31 09:44:41;;;;;;;5.03;1.77;;;11.10;99.90;;;;;;5124410;27;20065;-83
2023/10/31 09:47:30;;;;;;;5.20;1.25;;;11.20;1.00;;;;;;5127223;27;20126;-82
2023/10/31 09:50:20;;;;;;;4.85;1.58;;;11.10;99.90;;;;;;5126385;27;20079;-82
2023/10/31 09:53:09;;;;;;;3.88;1.65;;;11.00;1.00;;;;;;5123348;28;20100;-82
2023/10/31 09:55:57;;;;;;;8.05;1.90;;;10.80;1.00;;;;;;5131657;28;20058;-83
2023/10/31 09:58:44;;;;;;;5.65;2.05;;;10.60;1.00;;;;;;5110962;28;20049;-80
2023/10/31 10:01:32;;;;;;;8.02;1.40;;;10.30;1.00;;;;;;5122099;28;20126;-83
2023/10/31 10:04:21;;;;;;;7.05;1.67;;;10.30;99.90;;;;;;5123300;27;20943;-81
2023/10/31 10:07:09;;;;;;;4.82;1.75;;;10.40;99.90;;;;;;5119424;28;20047;-81
2023/10/31 10:09:56;;;;;;;11.90;1.80;;;10.50;99.90;;;;;;5128064;28;20050;-82
2023/10/31 10:12:44;;;;;;;6.70;1.92;;;10.50;99.90;;;;;;5132183;28;20051;-79
2023/10/31 10:15:44;;;;;;;9.43;1.65;;;10.60;99.90;;;;;;5123414;28;20118;-82
2023/10/31 10:18:39;;;;;;;4.25;1.70;;;10.70;74.00;;;;;;5129268;28;20039;-81
2023/10/31 10:21:26;;;;;;;5.07;1.50;;;10.80;1.00;;;;;;5112027;28;20043;-83
2023/10/31 10:24:16;;;;;;;3.28;1.52;;;10.80;1.00;;;;;;5129884;28;20086;-81
2023/10/31 10:27:04;;;;;;;7.78;2.13;;;10.70;99.90;;;;;;5121620;28;20070;-82
2023/10/31 10:29:53;;;;;;;4.55;1.42;;;10.70;1.00;;;;;;5115447;28;20300;-83
2023/10/31 10:32:43;;;;;;;6.18;1.83;;;10.80;1.00;;;;;;5106240;27;20113;-83
2023/10/31 10:35:31;;;;;;;5.10;1.23;;;11.10;1.00;;;;;;5127671;27;20047;-82
2023/10/31 10:38:21;;;;;;;4.90;1.67;;;11.30;99.90;;;;;;5132174;27;20039;-83
2023/10/31 10:41:13;;;;;;;7.47;1.58;;;11.20;99.90;;;;;;5133050;27;20050;-81
2023/10/31 10:44:07;;;;;;;1.50;0.90;;;11.10;90.90;;;;;;5130494;27;20058;-82
2023/10/31 10:46:58;;;;;;;3.10;1.17;;;11.10;76.10;;;;;;5133363;27;20051;-82
2023/10/31 10:49:51;;;;;;;8.95;1.95;;;11.30;1.00;;;;;;5130035;27;20050;-83
2023/10/31 10:52:43;;;;;;;;;;;11.70;1.00;;;;;;5117389;27;20075;-83
2023/10/31 10:55:44;;;;;;;5.00;1.60;;;12.10;67.10;;;;;;5112975;27;19925;-82
2023/10/31 10:58:55;;;;;;;1.95;1.30;;;12.20;99.90;;;;;;5131202;27;20043;-82
2023/10/31 11:01:47;;;;;;;2.25;1.02;;;12.10;99.90;;;;;;5132331;27;20047;-82
2023/10/31 11:04:37;;;;;;;5.38;1.00;;;12.10;1.00;;;;;;5114380;27;20378;-83
2023/10/31 11:07:26;;;;;;;2.47;0.68;;;11.90;99.90;;;;;;5129142;27;20116;-83
2023/10/31 11:10:14;;;;;;;2.28;0.90;;;12.10;99.90;;;;;;5114256;27;20039;-82
2023/10/31 11:13:01;;;;;;;3.83;0.70;;;12.40;99.90;;;;;;5130501;27;20121;-79
2023/10/31 11:15:54;;;;;;;0.63;0.60;;;12.90;1.00;;;;;;5137093;27;20039;-83
2023/10/31 11:18:42;;;;;;;2.90;0.80;;;13.20;99.90;;;;;;5132860;27;20371;-85
2023/10/31 11:21:29;;;;;;;3.15;1.20;;;13.00;99.90;;;;;;5131094;27;20065;-84
2023/10/31 11:24:20;;;;;;;1.33;0.50;;;12.90;99.90;;;;;;5127672;27;20065;-81
2023/10/31 11:27:09;;;;;;;2.85;1.05;;;13.00;99.90;;;;;;5125942;27;20123;-84
2023/10/31 11:29:59;;;;;;;2.33;0.80;;;13.50;53.60;;;;;;5134843;27;20062;-83
2023/10/31 11:32:52;;;;;;;1.95;0.70;;;13.50;1.00;;;;;;5130885;27;20040;-82
2023/10/31 11:35:41;;;;;;;2.15;0.77;;;13.60;1.00;;;;;;5120190;27;20111;-83
2023/10/31 11:38:36;;;;;;;3.58;0.90;;;13.40;1.00;;;;;;5133985;27;20044;-81
2023/10/31 11:41:25;;;;;;;2.17;0.65;;;12.80;1.00;;;;;;5118034;27;20043;-83
2023/10/31 11:44:14;;;;;;;2.22;0.93;;;12.50;1.00;;;;;;5134473;27;20058;-84
2023/10/31 11:47:04;;;;;;;2.33;0.88;;;12.50;1.00;;;;;;5128890;27;20051;-84
2023/10/31 11:49:54;;;;;;;3.50;0.88;;;12.40;1.00;;;;;;5126619;27;20122;-84
2023/10/31 11:52:44;;;;;;;3.50;1.30;;;12.30;1.00;;;;;;5126158;27;20047;-82
2023/10/31 11:55:36;;;;;;;1.60;0.90;;;12.40;1.00;;;;;;5130969;27;21048;-84
2023/10/31 11:58:30;;;;;;;2.25;1.25;;;12.20;1.00;;;;;;5122639;27;20406;-82
2023/10/31 12:01:17;;;;;;;2.90;1.02;;;12.10;52.90;;;;;;5130609;27;20359;-85
2023/10/31 12:04:05;;;;;;;4.65;0.80;;;12.10;71.10;;;;;;5116256;27;20058;-86
2023/10/31 12:07:01;;;;;;;2.35;0.80;;;12.10;28.00;;;;;;5121924;27;20135;-86
2023/10/31 12:09:48;;;;;;;2.30;0.70;;;12.10;23.70;;;;;;5114380;27;20055;-83
2023/10/31 12:12:38;;;;;;;1.38;0.65;;;12.10;16.80;;;;;;5132209;27;20050;-84
2023/10/31 12:15:26;;;;;;;2.00;0.68;;;12.30;12.20;;;;;;5132772;27;20058;-83
2023/10/31 12:18:13;;;;;;;3.65;0.77;;;12.20;1.00;;;;;;5119501;27;20175;-84
2023/10/31 12:21:01;;;;;;;0.82;0.50;;;12.10;7.10;;;;;;5135596;27;20478;-84
2023/10/31 12:23:53;;;;;;;2.28;0.50;;;12.00;16.00;;;;;;5127999;27;20119;-83
2023/10/31 12:26:46;;;;;;;2.55;0.85;;;11.90;1.00;;;;;;5122591;22;20426;-83
2023/10/31 12:29:44;;;;;;;0.50;0.50;;;11.90;20.60;;;;;;4939501;28;20048;-81
2023/10/31 12:32:34;;;;;;;1.50;0.50;;;12.00;53.10;;;;;;4957974;28;20126;-84
2023/10/31 12:35:26;;;;;;;2.00;0.70;;;12.00;64.40;;;;;;4949844;28;20047;-81
2023/10/31 12:38:16;;;;;;;3.03;0.73;;;12.10;85.20;;;;;;4963452;28;20036;-81
2023/10/31 12:41:04;;;;;;;0.77;0.75;;;12.20;56.50;;;;;;4968608;28;20150;-81
2023/10/31 12:43:52;;;;;;;1.52;0.80;;;12.20;54.60;;;;;;4957921;28;20479;-81
2023/10/31 12:46:40;;;;;;;1.88;0.88;;;12.10;92.70;;;;;;4959471;28;20105;-81
2023/10/31 12:49:29;;;;;;;1.95;0.50;;;12.20;99.90;;;;;;5023204;28;20135;-86
2023/10/31 12:52:18;;;;;;;1.33;0.80;;;12.20;99.90;;;;;;4942767;28;20093;-85
2023/10/31 12:55:18;;;;;;;1.35;0.60;;;12.30;96.00;;;;;;4955831;28;20041;-85
2023/10/31 12:58:06;;;;;;;1.95;0.70;;;12.40;90.10;;;;;;4960179;28;20050;-86
2023/10/31 13:00:55;;;;;;;2.35;0.80;;;12.20;27.80;;;;;;4948233;28;20054;-81
2023/10/31 13:03:50;;;;;;;3.30;1.17;;;12.10;22.80;;;;;;4972534;28;20066;-86
2023/10/31 13:06:38;;;;;;;2.20;0.85;;;12.10;9.90;;;;;;5000787;28;20051;-83
2023/10/31 13:09:39;;;;;;;2.15;0.95;;;12.10;1.00;;;;;;4964173;28;20491;-82
2023/10/31 13:12:29;;;;;;;1.50;0.93;;;12.00;1.00;;;;;;4985787;28;20655;-86
2023/10/31 13:15:18;;;;;;;3.85;0.80;;;12.00;1.00;;;;;;4996346;28;20044;-87
2023/10/31 13:18:07;;;;;;;3.33;0.70;;;12.30;1.00;;;;;;4981161;28;20142;-87
2023/10/31 13:20:54;;;;;;;1.67;0.80;;;12.50;1.00;;;;;;5003679;28;20067;-87
2023/10/31 13:23:45;;;;;;;1.33;0.90;;;12.60;1.00;;;;;;4943157;28;20082;-86
2023/10/31 13:26:33;;;;;;;2.40;1.20;;;12.60;1.00;;;;;;4973489;28;20492;-88
2023/10/31 13:29:25;;;;;;;1.98;1.00;;;12.80;1.00;;;;;;4953208;28;20054;-83
2023/10/31 13:32:15;;;;;;;2.55;0.98;;;12.90;1.00;;;;;;4967271;28;20118;-86
2023/10/31 13:35:04;;;;;;;2.53;0.88;;;12.90;1.00;;;;;;4946628;28;20056;-88
2023/10/31 13:37:56;;;;;;;1.42;0.80;;;14.30;1.00;;;;;;4999101;28;20076;-88
2023/10/31 13:40:45;;;;;;;3.42;0.80;;;16.40;99.90;;;;;;4954626;28;20459;-89
2023/10/31 13:43:34;;;;;;;1.15;0.60;;;16.70;63.60;;;;;;4961500;28;20051;-87
2023/10/31 13:46:24;;;;;;;1.35;0.82;;;15.60;20.30;;;;;;4961182;28;20051;-86
2023/10/31 13:49:12;;;;;;;2.10;1.02;;;14.60;3.40;;;;;;4937005;28;20048;-86
2023/10/31 13:52:05;;;;;;;2.55;1.48;;;13.80;28.70;;;;;;4961165;28;20039;-83
2023/10/31 13:54:54;;;;;;;5.38;1.90;;;13.70;84.30;;;;;;4955578;28;20063;-80
2023/10/31 13:57:42;;;;;;;3.33;1.20;;;13.40;99.90;;;;;;4954088;28;20379;-79
2023/10/31 14:00:29;;;;;;;3.35;1.00;;;13.00;99.90;;;;;;4952642;28;20058;-82
2023/10/31 14:03:17;;;;;;;1.67;0.90;;;12.70;99.90;;;;;;5012302;28;20057;-81
2023/10/31 14:06:05;;;;;;;2.13;0.88;;;12.50;99.90;;;;;;4963461;28;20055;-87
2023/10/31 14:08:53;;;;;;;2.05;1.10;;;12.50;99.90;;;;;;5009828;28;20055;-87
2023/10/31 14:11:42;;;;;;;3.17;1.00;;;12.70;99.90;;;;;;4961225;28;20047;-87
2023/10/31 14:14:34;;;;;;;1.92;1.05;;;12.70;99.90;;;;;;4960499;28;20062;-89
2023/10/31 14:17:23;;;;;;;6.22;1.67;;;12.70;99.90;;;;;;5040295;28;20107;-86
2023/10/31 14:20:13;;;;;;;2.58;1.00;;;12.50;99.90;;;;;;4953924;28;20114;-85
2023/10/31 14:23:00;;;;;;;4.15;1.10;;;12.30;99.90;;;;;;5014487;28;20042;-87
2023/10/31 14:25:48;;;;;;;2.75;1.30;;;12.10;99.90;;;;;;5004992;28;20059;-85
2023/10/31 14:28:36;;;;;;;1.45;0.70;;;12.00;99.90;;;;;;5009257;28;20053;-88
2023/10/31 14:31:25;;;;;;;1.67;1.20;;;11.90;99.90;;;;;;4983559;28;20050;-89
2023/10/31 14:34:12;;;;;;;2.67;1.17;;;11.90;99.90;;;;;;4965542;28;20043;-78
2023/10/31 14:36:59;;;;;;;3.92;0.90;;;11.80;99.90;;;;;;4988137;28;20039;-86
2023/10/31 14:39:47;;;;;;;3.58;1.15;;;11.70;99.90;;;;;;4981297;28;20173;-85
2023/10/31 14:42:36;;;;;;;3.30;1.58;;;11.60;99.90;;;;;;4973065;28;20041;-79
2023/10/31 14:45:24;;;;;;;4.43;1.23;;;11.60;1.00;;;;;;5041093;28;20045;-85
2023/10/31 14:48:12;;;;;;;5.03;1.27;;;11.50;1.00;;;;;;4976554;28;20058;-85